sensor_id;sensor_type;location;lat;lon;timestamp;P1;durP1;ratioP1;P2;durP2;ratioP2
7398;SDS011;3740;50.700;7.184;2024-02-23T00:01:49;0.90;;;0.90;;
7398;SDS011;3740;50.700;7.184;2024-02-23T00:04:15;2.00;;;1.80;;
7398;SDS011;3740;50.700;7.184;2024-02-23T00:06:41;1.57;;;1.23;;
7398;SDS011;3740;50.700;7.184;2024-02-23T00:09:06;1.27;;;1.03;;
7398;SDS011;3740;50.700;7.184;2024-02-23T00:11:32;2.23;;;1.23;;
7398;SDS011;3740;50.700;7.184;2024-02-23T00:13:58;0.93;;;0.93;;
7398;SDS011;3740;50.700;7.184;2024-02-23T00:16:24;0.57;;;0.40;;
7398;SDS011;3740;50.700;7.184;2024-02-23T00:18:51;0.43;;;0.43;;
7398;SDS011;3740;50.700;7.184;2024-02-23T00:21:17;2.50;;;2.33;;
7398;SDS011;3740;50.700;7.184;2024-02-23T00:23:42;0.60;;;0.60;;
7398;SDS011;3740;50.700;7.184;2024-02-23T00:26:08;0.30;;;0.30;;
7398;SDS011;3740;50.700;7.184;2024-02-23T00:28:34;2.20;;;2.10;;
7398;SDS011;3740;50.700;7.184;2024-02-23T00:30:59;2.07;;;1.90;;
7398;SDS011;3740;50.700;7.184;2024-02-23T00:33:25;0.40;;;0.30;;
7398;SDS011;3740;50.700;7.184;2024-02-23T00:35:51;0.40;;;0.40;;
7398;SDS011;3740;50.700;7.184;2024-02-23T00:38:16;1.30;;;0.30;;
7398;SDS011;3740;50.700;7.184;2024-02-23T00:40:42;0.27;;;0.23;;
7398;SDS011;3740;50.700;7.184;2024-02-23T00:43:07;0.30;;;0.30;;
7398;SDS011;3740;50.700;7.184;2024-02-23T00:45:33;0.53;;;0.13;;
7398;SDS011;3740;50.700;7.184;2024-02-23T00:47:58;0.20;;;0.20;;
7398;SDS011;3740;50.700;7.184;2024-02-23T00:50:24;0.93;;;0.30;;
7398;SDS011;3740;50.700;7.184;2024-02-23T00:52:51;0.20;;;0.20;;
7398;SDS011;3740;50.700;7.184;2024-02-23T00:55:17;1.00;;;0.40;;
7398;SDS011;3740;50.700;7.184;2024-02-23T00:57:43;1.00;;;0.30;;
7398;SDS011;3740;50.700;7.184;2024-02-23T01:00:10;0.27;;;0.20;;
7398;SDS011;3740;50.700;7.184;2024-02-23T01:02:36;0.30;;;0.30;;
7398;SDS011;3740;50.700;7.184;2024-02-23T01:05:02;0.83;;;0.40;;
7398;SDS011;3740;50.700;7.184;2024-02-23T01:07:29;1.23;;;0.40;;
7398;SDS011;3740;50.700;7.184;2024-02-23T01:09:54;0.70;;;0.37;;
7398;SDS011;3740;50.700;7.184;2024-02-23T01:12:20;0.20;;;0.20;;
7398;SDS011;3740;50.700;7.184;2024-02-23T01:14:45;0.73;;;0.40;;
7398;SDS011;3740;50.700;7.184;2024-02-23T01:17:13;0.50;;;0.30;;
7398;SDS011;3740;50.700;7.184;2024-02-23T01:19:40;0.67;;;0.40;;
7398;SDS011;3740;50.700;7.184;2024-02-23T01:22:06;0.53;;;0.40;;
7398;SDS011;3740;50.700;7.184;2024-02-23T01:24:31;1.93;;;0.70;;
7398;SDS011;3740;50.700;7.184;2024-02-23T01:26:57;1.00;;;0.40;;
7398;SDS011;3740;50.700;7.184;2024-02-23T01:29:24;1.27;;;0.50;;
7398;SDS011;3740;50.700;7.184;2024-02-23T01:31:51;1.40;;;0.77;;
7398;SDS011;3740;50.700;7.184;2024-02-23T01:34:17;1.23;;;0.50;;
7398;SDS011;3740;50.700;7.184;2024-02-23T01:36:43;0.97;;;0.40;;
7398;SDS011;3740;50.700;7.184;2024-02-23T01:39:09;1.37;;;0.83;;
7398;SDS011;3740;50.700;7.184;2024-02-23T01:41:35;1.20;;;0.60;;
7398;SDS011;3740;50.700;7.184;2024-02-23T01:44:00;1.10;;;0.83;;
7398;SDS011;3740;50.700;7.184;2024-02-23T01:46:26;1.27;;;0.70;;
7398;SDS011;3740;50.700;7.184;2024-02-23T01:48:52;1.80;;;1.10;;
7398;SDS011;3740;50.700;7.184;2024-02-23T01:51:18;2.93;;;0.93;;
7398;SDS011;3740;50.700;7.184;2024-02-23T01:53:44;1.73;;;0.83;;
7398;SDS011;3740;50.700;7.184;2024-02-23T01:56:10;3.10;;;1.00;;
7398;SDS011;3740;50.700;7.184;2024-02-23T01:58:39;1.90;;;0.77;;
7398;SDS011;3740;50.700;7.184;2024-02-23T02:01:05;1.47;;;0.87;;
7398;SDS011;3740;50.700;7.184;2024-02-23T02:03:30;2.43;;;1.07;;
7398;SDS011;3740;50.700;7.184;2024-02-23T02:05:58;1.47;;;0.87;;
7398;SDS011;3740;50.700;7.184;2024-02-23T02:08:25;2.40;;;0.93;;
7398;SDS011;3740;50.700;7.184;2024-02-23T02:10:51;2.77;;;0.97;;
7398;SDS011;3740;50.700;7.184;2024-02-23T02:13:16;2.50;;;0.67;;
7398;SDS011;3740;50.700;7.184;2024-02-23T02:15:42;2.17;;;0.70;;
7398;SDS011;3740;50.700;7.184;2024-02-23T02:18:09;1.33;;;1.23;;
7398;SDS011;3740;50.700;7.184;2024-02-23T02:20:35;3.10;;;0.90;;
7398;SDS011;3740;50.700;7.184;2024-02-23T02:23:02;1.33;;;0.60;;
7398;SDS011;3740;50.700;7.184;2024-02-23T02:25:28;2.30;;;0.97;;
7398;SDS011;3740;50.700;7.184;2024-02-23T02:27:53;2.07;;;0.90;;
7398;SDS011;3740;50.700;7.184;2024-02-23T02:30:19;0.97;;;0.70;;
7398;SDS011;3740;50.700;7.184;2024-02-23T02:32:44;2.30;;;0.90;;
7398;SDS011;3740;50.700;7.184;2024-02-23T02:35:11;2.20;;;0.70;;
7398;SDS011;3740;50.700;7.184;2024-02-23T02:37:39;0.73;;;0.67;;
7398;SDS011;3740;50.700;7.184;2024-02-23T02:40:05;1.77;;;1.30;;
7398;SDS011;3740;50.700;7.184;2024-02-23T02:42:32;3.00;;;1.20;;
7398;SDS011;3740;50.700;7.184;2024-02-23T02:44:58;1.70;;;0.97;;
7398;SDS011;3740;50.700;7.184;2024-02-23T02:47:24;2.53;;;0.87;;
7398;SDS011;3740;50.700;7.184;2024-02-23T02:49:49;1.83;;;1.03;;
7398;SDS011;3740;50.700;7.184;2024-02-23T02:52:16;1.20;;;0.80;;
7398;SDS011;3740;50.700;7.184;2024-02-23T02:54:41;2.50;;;0.80;;
7398;SDS011;3740;50.700;7.184;2024-02-23T02:57:07;2.20;;;1.00;;
7398;SDS011;3740;50.700;7.184;2024-02-23T02:59:35;1.60;;;1.00;;
7398;SDS011;3740;50.700;7.184;2024-02-23T03:02:01;0.70;;;0.63;;
7398;SDS011;3740;50.700;7.184;2024-02-23T03:04:26;1.00;;;0.87;;
7398;SDS011;3740;50.700;7.184;2024-02-23T03:06:52;2.07;;;1.00;;
7398;SDS011;3740;50.700;7.184;2024-02-23T03:09:18;2.33;;;1.30;;
7398;SDS011;3740;50.700;7.184;2024-02-23T03:11:43;1.57;;;1.00;;
7398;SDS011;3740;50.700;7.184;2024-02-23T03:14:09;1.27;;;1.00;;
7398;SDS011;3740;50.700;7.184;2024-02-23T03:16:35;2.80;;;1.23;;
7398;SDS011;3740;50.700;7.184;2024-02-23T03:19:02;2.90;;;1.13;;
7398;SDS011;3740;50.700;7.184;2024-02-23T03:21:28;2.07;;;0.90;;
7398;SDS011;3740;50.700;7.184;2024-02-23T03:23:53;3.07;;;1.40;;
7398;SDS011;3740;50.700;7.184;2024-02-23T03:26:19;2.50;;;1.30;;
7398;SDS011;3740;50.700;7.184;2024-02-23T03:28:45;3.43;;;1.30;;
7398;SDS011;3740;50.700;7.184;2024-02-23T03:31:10;1.87;;;1.30;;
7398;SDS011;3740;50.700;7.184;2024-02-23T03:33:36;1.70;;;1.13;;
7398;SDS011;3740;50.700;7.184;2024-02-23T03:36:02;3.20;;;1.50;;
7398;SDS011;3740;50.700;7.184;2024-02-23T03:38:28;1.67;;;0.93;;
7398;SDS011;3740;50.700;7.184;2024-02-23T03:40:55;3.50;;;1.17;;
7398;SDS011;3740;50.700;7.184;2024-02-23T03:43:20;1.00;;;0.80;;
7398;SDS011;3740;50.700;7.184;2024-02-23T03:45:46;3.30;;;1.33;;
7398;SDS011;3740;50.700;7.184;2024-02-23T03:48:11;2.70;;;1.00;;
7398;SDS011;3740;50.700;7.184;2024-02-23T03:50:37;3.43;;;1.03;;
7398;SDS011;3740;50.700;7.184;2024-02-23T03:53:03;1.37;;;0.90;;
7398;SDS011;3740;50.700;7.184;2024-02-23T03:55:28;2.73;;;0.97;;
7398;SDS011;3740;50.700;7.184;2024-02-23T03:57:54;0.97;;;0.83;;
7398;SDS011;3740;50.700;7.184;2024-02-23T04:00:19;1.53;;;0.73;;
7398;SDS011;3740;50.700;7.184;2024-02-23T04:02:47;3.13;;;1.10;;
7398;SDS011;3740;50.700;7.184;2024-02-23T04:05:12;3.00;;;1.20;;
7398;SDS011;3740;50.700;7.184;2024-02-23T04:07:38;1.73;;;1.00;;
7398;SDS011;3740;50.700;7.184;2024-02-23T04:10:03;1.77;;;0.77;;
7398;SDS011;3740;50.700;7.184;2024-02-23T04:12:29;2.50;;;1.10;;
7398;SDS011;3740;50.700;7.184;2024-02-23T04:14:56;4.33;;;1.30;;
7398;SDS011;3740;50.700;7.184;2024-02-23T04:17:21;2.17;;;1.57;;
7398;SDS011;3740;50.700;7.184;2024-02-23T04:19:47;2.23;;;1.00;;
7398;SDS011;3740;50.700;7.184;2024-02-23T04:22:12;1.77;;;0.97;;
7398;SDS011;3740;50.700;7.184;2024-02-23T04:24:38;2.77;;;1.13;;
7398;SDS011;3740;50.700;7.184;2024-02-23T04:27:07;3.47;;;1.53;;
7398;SDS011;3740;50.700;7.184;2024-02-23T04:29:34;2.73;;;1.17;;
7398;SDS011;3740;50.700;7.184;2024-02-23T04:31:59;3.20;;;1.50;;
7398;SDS011;3740;50.700;7.184;2024-02-23T04:34:26;1.87;;;1.03;;
7398;SDS011;3740;50.700;7.184;2024-02-23T04:36:52;2.63;;;1.67;;
7398;SDS011;3740;50.700;7.184;2024-02-23T04:39:17;1.63;;;1.30;;
7398;SDS011;3740;50.700;7.184;2024-02-23T04:41:43;2.57;;;1.30;;
7398;SDS011;3740;50.700;7.184;2024-02-23T04:44:08;2.80;;;1.50;;
7398;SDS011;3740;50.700;7.184;2024-02-23T04:46:34;2.90;;;1.30;;
7398;SDS011;3740;50.700;7.184;2024-02-23T04:49:00;1.93;;;1.03;;
7398;SDS011;3740;50.700;7.184;2024-02-23T04:51:26;4.47;;;1.90;;
7398;SDS011;3740;50.700;7.184;2024-02-23T04:53:52;4.73;;;1.70;;
7398;SDS011;3740;50.700;7.184;2024-02-23T04:56:17;3.93;;;1.60;;
7398;SDS011;3740;50.700;7.184;2024-02-23T04:58:43;5.23;;;1.87;;
7398;SDS011;3740;50.700;7.184;2024-02-23T05:01:09;2.27;;;1.80;;
7398;SDS011;3740;50.700;7.184;2024-02-23T05:03:35;3.23;;;1.73;;
7398;SDS011;3740;50.700;7.184;2024-02-23T05:06:02;3.50;;;1.80;;
7398;SDS011;3740;50.700;7.184;2024-02-23T05:08:28;2.57;;;1.37;;
7398;SDS011;3740;50.700;7.184;2024-02-23T05:10:55;3.67;;;2.00;;
7398;SDS011;3740;50.700;7.184;2024-02-23T05:13:21;4.37;;;2.00;;
7398;SDS011;3740;50.700;7.184;2024-02-23T05:15:46;3.87;;;2.03;;
7398;SDS011;3740;50.700;7.184;2024-02-23T05:18:12;4.23;;;1.80;;
7398;SDS011;3740;50.700;7.184;2024-02-23T05:20:37;4.80;;;2.20;;
7398;SDS011;3740;50.700;7.184;2024-02-23T05:23:03;2.93;;;1.30;;
7398;SDS011;3740;50.700;7.184;2024-02-23T05:25:29;3.33;;;1.90;;
7398;SDS011;3740;50.700;7.184;2024-02-23T05:27:54;4.20;;;1.90;;
7398;SDS011;3740;50.700;7.184;2024-02-23T05:30:20;5.60;;;2.73;;
7398;SDS011;3740;50.700;7.184;2024-02-23T05:32:45;5.10;;;2.30;;
7398;SDS011;3740;50.700;7.184;2024-02-23T05:35:12;4.67;;;2.40;;
7398;SDS011;3740;50.700;7.184;2024-02-23T05:37:38;3.53;;;2.23;;
7398;SDS011;3740;50.700;7.184;2024-02-23T05:40:04;5.53;;;2.27;;
7398;SDS011;3740;50.700;7.184;2024-02-23T05:42:34;5.47;;;2.37;;
7398;SDS011;3740;50.700;7.184;2024-02-23T05:45:03;4.17;;;1.93;;
7398;SDS011;3740;50.700;7.184;2024-02-23T05:47:34;5.67;;;2.40;;
7398;SDS011;3740;50.700;7.184;2024-02-23T05:50:01;4.60;;;2.03;;
7398;SDS011;3740;50.700;7.184;2024-02-23T05:52:28;3.67;;;2.17;;
7398;SDS011;3740;50.700;7.184;2024-02-23T05:54:53;3.47;;;1.90;;
7398;SDS011;3740;50.700;7.184;2024-02-23T05:57:21;4.33;;;2.07;;
7398;SDS011;3740;50.700;7.184;2024-02-23T05:59:46;3.83;;;2.17;;
7398;SDS011;3740;50.700;7.184;2024-02-23T06:02:12;3.33;;;2.20;;
7398;SDS011;3740;50.700;7.184;2024-02-23T06:04:39;4.37;;;1.77;;
7398;SDS011;3740;50.700;7.184;2024-02-23T06:07:05;4.37;;;1.57;;
7398;SDS011;3740;50.700;7.184;2024-02-23T06:09:31;4.53;;;2.10;;
7398;SDS011;3740;50.700;7.184;2024-02-23T06:11:56;3.97;;;1.70;;
7398;SDS011;3740;50.700;7.184;2024-02-23T06:14:22;4.60;;;1.83;;
7398;SDS011;3740;50.700;7.184;2024-02-23T06:16:48;3.83;;;1.90;;
7398;SDS011;3740;50.700;7.184;2024-02-23T06:19:14;5.50;;;2.17;;
7398;SDS011;3740;50.700;7.184;2024-02-23T06:21:40;3.27;;;1.93;;
7398;SDS011;3740;50.700;7.184;2024-02-23T06:24:06;5.17;;;1.73;;
7398;SDS011;3740;50.700;7.184;2024-02-23T06:26:33;4.50;;;1.90;;
7398;SDS011;3740;50.700;7.184;2024-02-23T06:28:59;5.67;;;2.20;;
7398;SDS011;3740;50.700;7.184;2024-02-23T06:31:25;3.07;;;1.23;;
7398;SDS011;3740;50.700;7.184;2024-02-23T06:33:51;5.17;;;2.03;;
7398;SDS011;3740;50.700;7.184;2024-02-23T06:36:17;6.10;;;2.10;;
7398;SDS011;3740;50.700;7.184;2024-02-23T06:38:43;6.47;;;2.10;;
7398;SDS011;3740;50.700;7.184;2024-02-23T06:41:10;3.50;;;2.10;;
7398;SDS011;3740;50.700;7.184;2024-02-23T06:43:36;4.77;;;2.73;;
7398;SDS011;3740;50.700;7.184;2024-02-23T06:46:08;5.40;;;2.20;;
7398;SDS011;3740;50.700;7.184;2024-02-23T06:48:37;3.47;;;1.97;;
7398;SDS011;3740;50.700;7.184;2024-02-23T06:51:03;5.13;;;2.30;;
7398;SDS011;3740;50.700;7.184;2024-02-23T06:53:30;3.97;;;1.70;;
7398;SDS011;3740;50.700;7.184;2024-02-23T06:55:55;5.97;;;1.90;;
7398;SDS011;3740;50.700;7.184;2024-02-23T06:58:21;3.63;;;2.00;;
7398;SDS011;3740;50.700;7.184;2024-02-23T07:00:46;3.73;;;2.27;;
7398;SDS011;3740;50.700;7.184;2024-02-23T07:03:12;6.90;;;2.50;;
7398;SDS011;3740;50.700;7.184;2024-02-23T07:05:39;5.23;;;2.30;;
7398;SDS011;3740;50.700;7.184;2024-02-23T07:08:07;5.77;;;2.33;;
7398;SDS011;3740;50.700;7.184;2024-02-23T07:10:32;5.27;;;1.97;;
7398;SDS011;3740;50.700;7.184;2024-02-23T07:12:58;4.43;;;2.10;;
7398;SDS011;3740;50.700;7.184;2024-02-23T07:15:24;5.33;;;2.23;;
7398;SDS011;3740;50.700;7.184;2024-02-23T07:17:50;7.53;;;2.33;;
7398;SDS011;3740;50.700;7.184;2024-02-23T07:20:19;6.47;;;2.50;;
7398;SDS011;3740;50.700;7.184;2024-02-23T07:22:45;3.37;;;2.00;;
7398;SDS011;3740;50.700;7.184;2024-02-23T07:25:11;4.53;;;1.97;;
7398;SDS011;3740;50.700;7.184;2024-02-23T07:27:41;3.70;;;2.30;;
7398;SDS011;3740;50.700;7.184;2024-02-23T07:30:07;3.83;;;2.50;;
7398;SDS011;3740;50.700;7.184;2024-02-23T07:32:33;6.80;;;2.53;;
7398;SDS011;3740;50.700;7.184;2024-02-23T07:34:58;5.53;;;2.47;;
7398;SDS011;3740;50.700;7.184;2024-02-23T07:37:25;5.57;;;2.10;;
7398;SDS011;3740;50.700;7.184;2024-02-23T07:39:52;5.43;;;2.10;;
7398;SDS011;3740;50.700;7.184;2024-02-23T07:42:18;4.70;;;2.00;;
7398;SDS011;3740;50.700;7.184;2024-02-23T07:44:44;4.63;;;2.30;;
7398;SDS011;3740;50.700;7.184;2024-02-23T07:47:09;6.57;;;2.20;;
7398;SDS011;3740;50.700;7.184;2024-02-23T07:49:36;4.17;;;2.43;;
7398;SDS011;3740;50.700;7.184;2024-02-23T07:52:02;3.37;;;1.77;;
7398;SDS011;3740;50.700;7.184;2024-02-23T07:54:28;3.87;;;2.03;;
7398;SDS011;3740;50.700;7.184;2024-02-23T07:56:54;3.63;;;1.70;;
7398;SDS011;3740;50.700;7.184;2024-02-23T07:59:19;5.10;;;2.27;;
7398;SDS011;3740;50.700;7.184;2024-02-23T08:01:45;5.93;;;2.13;;
7398;SDS011;3740;50.700;7.184;2024-02-23T08:04:11;5.03;;;2.27;;
7398;SDS011;3740;50.700;7.184;2024-02-23T08:06:38;3.80;;;1.73;;
7398;SDS011;3740;50.700;7.184;2024-02-23T08:09:04;3.23;;;1.77;;
7398;SDS011;3740;50.700;7.184;2024-02-23T08:11:29;3.57;;;1.77;;
7398;SDS011;3740;50.700;7.184;2024-02-23T08:13:55;3.50;;;1.93;;
7398;SDS011;3740;50.700;7.184;2024-02-23T08:16:21;3.97;;;1.90;;
7398;SDS011;3740;50.700;7.184;2024-02-23T08:18:46;5.90;;;2.43;;
7398;SDS011;3740;50.700;7.184;2024-02-23T08:21:12;5.27;;;1.90;;
7398;SDS011;3740;50.700;7.184;2024-02-23T08:23:37;3.70;;;2.03;;
7398;SDS011;3740;50.700;7.184;2024-02-23T08:26:03;3.63;;;1.90;;
7398;SDS011;3740;50.700;7.184;2024-02-23T08:28:29;4.63;;;2.07;;
7398;SDS011;3740;50.700;7.184;2024-02-23T08:30:54;3.90;;;1.80;;
7398;SDS011;3740;50.700;7.184;2024-02-23T08:33:20;4.50;;;2.20;;
7398;SDS011;3740;50.700;7.184;2024-02-23T08:35:45;3.47;;;1.90;;
7398;SDS011;3740;50.700;7.184;2024-02-23T08:38:13;4.97;;;2.03;;
7398;SDS011;3740;50.700;7.184;2024-02-23T08:40:39;2.70;;;1.73;;
7398;SDS011;3740;50.700;7.184;2024-02-23T08:43:05;4.37;;;1.87;;
7398;SDS011;3740;50.700;7.184;2024-02-23T08:45:30;5.10;;;2.50;;
7398;SDS011;3740;50.700;7.184;2024-02-23T08:47:56;3.53;;;2.00;;
7398;SDS011;3740;50.700;7.184;2024-02-23T08:50:22;3.60;;;1.50;;
7398;SDS011;3740;50.700;7.184;2024-02-23T08:52:47;3.43;;;1.60;;
7398;SDS011;3740;50.700;7.184;2024-02-23T08:55:13;2.60;;;1.70;;
7398;SDS011;3740;50.700;7.184;2024-02-23T08:57:38;3.70;;;1.57;;
7398;SDS011;3740;50.700;7.184;2024-02-23T09:00:04;3.47;;;2.00;;
7398;SDS011;3740;50.700;7.184;2024-02-23T09:02:30;3.07;;;1.67;;
7398;SDS011;3740;50.700;7.184;2024-02-23T09:04:57;3.43;;;1.53;;
7398;SDS011;3740;50.700;7.184;2024-02-23T09:07:23;2.93;;;1.77;;
7398;SDS011;3740;50.700;7.184;2024-02-23T09:09:49;2.50;;;1.40;;
7398;SDS011;3740;50.700;7.184;2024-02-23T09:12:15;3.17;;;1.57;;
7398;SDS011;3740;50.700;7.184;2024-02-23T09:14:41;6.73;;;2.47;;
7398;SDS011;3740;50.700;7.184;2024-02-23T09:17:10;3.53;;;1.80;;
7398;SDS011;3740;50.700;7.184;2024-02-23T09:19:37;4.43;;;1.83;;
7398;SDS011;3740;50.700;7.184;2024-02-23T09:22:03;2.77;;;1.60;;
7398;SDS011;3740;50.700;7.184;2024-02-23T09:24:29;6.23;;;2.00;;
7398;SDS011;3740;50.700;7.184;2024-02-23T09:26:54;3.53;;;1.53;;
7398;SDS011;3740;50.700;7.184;2024-02-23T09:29:20;3.13;;;1.53;;
7398;SDS011;3740;50.700;7.184;2024-02-23T09:31:46;3.80;;;1.57;;
7398;SDS011;3740;50.700;7.184;2024-02-23T09:34:12;5.90;;;1.90;;
7398;SDS011;3740;50.700;7.184;2024-02-23T09:36:37;4.27;;;1.80;;
7398;SDS011;3740;50.700;7.184;2024-02-23T09:39:03;4.37;;;1.73;;
7398;SDS011;3740;50.700;7.184;2024-02-23T09:41:29;5.30;;;1.97;;
7398;SDS011;3740;50.700;7.184;2024-02-23T09:43:57;8.37;;;2.70;;
7398;SDS011;3740;50.700;7.184;2024-02-23T09:46:23;4.60;;;2.13;;
7398;SDS011;3740;50.700;7.184;2024-02-23T09:48:51;4.70;;;2.07;;
7398;SDS011;3740;50.700;7.184;2024-02-23T09:51:16;4.70;;;2.70;;
7398;SDS011;3740;50.700;7.184;2024-02-23T09:53:43;4.27;;;2.60;;
7398;SDS011;3740;50.700;7.184;2024-02-23T09:56:09;7.20;;;2.83;;
7398;SDS011;3740;50.700;7.184;2024-02-23T09:58:35;5.27;;;2.40;;
7398;SDS011;3740;50.700;7.184;2024-02-23T10:01:02;4.07;;;2.43;;
7398;SDS011;3740;50.700;7.184;2024-02-23T10:03:29;6.23;;;2.60;;
7398;SDS011;3740;50.700;7.184;2024-02-23T10:05:58;4.73;;;2.30;;
7398;SDS011;3740;50.700;7.184;2024-02-23T10:08:27;3.23;;;1.67;;
7398;SDS011;3740;50.700;7.184;2024-02-23T10:10:54;3.27;;;1.63;;
7398;SDS011;3740;50.700;7.184;2024-02-23T10:13:21;3.33;;;1.60;;
7398;SDS011;3740;50.700;7.184;2024-02-23T10:15:49;4.17;;;1.90;;
7398;SDS011;3740;50.700;7.184;2024-02-23T10:18:15;3.43;;;1.70;;
7398;SDS011;3740;50.700;7.184;2024-02-23T10:20:41;4.33;;;2.13;;
7398;SDS011;3740;50.700;7.184;2024-02-23T10:23:08;5.13;;;2.10;;
7398;SDS011;3740;50.700;7.184;2024-02-23T10:25:34;3.23;;;2.00;;
7398;SDS011;3740;50.700;7.184;2024-02-23T10:28:05;3.83;;;1.73;;
7398;SDS011;3740;50.700;7.184;2024-02-23T10:30:33;1.83;;;1.60;;
7398;SDS011;3740;50.700;7.184;2024-02-23T10:32:58;1.80;;;1.27;;
7398;SDS011;3740;50.700;7.184;2024-02-23T10:35:25;2.28;;;1.35;;
7398;SDS011;3740;50.700;7.184;2024-02-23T10:37:52;1.75;;;1.02;;
7398;SDS011;3740;50.700;7.184;2024-02-23T10:40:20;2.08;;;1.20;;
7398;SDS011;3740;50.700;7.184;2024-02-23T10:42:49;2.13;;;1.08;;
7398;SDS011;3740;50.700;7.184;2024-02-23T10:45:20;1.75;;;1.30;;
7398;SDS011;3740;50.700;7.184;2024-02-23T10:47:49;2.00;;;1.30;;
7398;SDS011;3740;50.700;7.184;2024-02-23T10:50:15;3.53;;;1.40;;
7398;SDS011;3740;50.700;7.184;2024-02-23T10:52:41;1.80;;;1.40;;
7398;SDS011;3740;50.700;7.184;2024-02-23T10:55:10;2.50;;;1.45;;
7398;SDS011;3740;50.700;7.184;2024-02-23T10:57:37;2.45;;;1.23;;
7398;SDS011;3740;50.700;7.184;2024-02-23T11:00:04;2.28;;;1.00;;
7398;SDS011;3740;50.700;7.184;2024-02-23T11:02:34;1.23;;;1.07;;
7398;SDS011;3740;50.700;7.184;2024-02-23T11:05:06;2.07;;;1.33;;
7398;SDS011;3740;50.700;7.184;2024-02-23T11:07:37;3.30;;;1.50;;
7398;SDS011;3740;50.700;7.184;2024-02-23T11:10:05;4.90;;;1.63;;
7398;SDS011;3740;50.700;7.184;2024-02-23T11:12:31;3.57;;;1.40;;
7398;SDS011;3740;50.700;7.184;2024-02-23T11:14:59;3.10;;;1.27;;
7398;SDS011;3740;50.700;7.184;2024-02-23T11:17:32;2.77;;;1.40;;
7398;SDS011;3740;50.700;7.184;2024-02-23T11:20:02;1.97;;;1.43;;
7398;SDS011;3740;50.700;7.184;2024-02-23T11:22:32;2.87;;;1.50;;
7398;SDS011;3740;50.700;7.184;2024-02-23T11:25:03;3.27;;;1.47;;
7398;SDS011;3740;50.700;7.184;2024-02-23T11:27:31;3.00;;;1.27;;
7398;SDS011;3740;50.700;7.184;2024-02-23T11:30:01;2.47;;;1.17;;
7398;SDS011;3740;50.700;7.184;2024-02-23T11:32:39;1.90;;;1.40;;
7398;SDS011;3740;50.700;7.184;2024-02-23T11:35:10;2.37;;;1.63;;
7398;SDS011;3740;50.700;7.184;2024-02-23T11:37:46;4.17;;;1.53;;
7398;SDS011;3740;50.700;7.184;2024-02-23T11:40:13;3.95;;;1.58;;
7398;SDS011;3740;50.700;7.184;2024-02-23T11:42:40;2.50;;;1.30;;
7398;SDS011;3740;50.700;7.184;2024-02-23T11:45:07;2.85;;;1.42;;
7398;SDS011;3740;50.700;7.184;2024-02-23T11:47:33;3.75;;;1.92;;
7398;SDS011;3740;50.700;7.184;2024-02-23T11:49:59;1.45;;;1.00;;
7398;SDS011;3740;50.700;7.184;2024-02-23T11:52:24;3.22;;;1.55;;
7398;SDS011;3740;50.700;7.184;2024-02-23T11:54:50;3.72;;;1.55;;
7398;SDS011;3740;50.700;7.184;2024-02-23T11:57:16;3.10;;;1.80;;
7398;SDS011;3740;50.700;7.184;2024-02-23T11:59:42;1.92;;;1.20;;
7398;SDS011;3740;50.700;7.184;2024-02-23T12:02:07;2.70;;;1.63;;
7398;SDS011;3740;50.700;7.184;2024-02-23T12:04:33;2.43;;;1.50;;
7398;SDS011;3740;50.700;7.184;2024-02-23T12:06:58;2.77;;;1.20;;
7398;SDS011;3740;50.700;7.184;2024-02-23T12:09:25;3.87;;;1.50;;
7398;SDS011;3740;50.700;7.184;2024-02-23T12:11:51;2.37;;;1.30;;
7398;SDS011;3740;50.700;7.184;2024-02-23T12:14:17;3.13;;;1.60;;
7398;SDS011;3740;50.700;7.184;2024-02-23T12:16:42;1.73;;;1.30;;
7398;SDS011;3740;50.700;7.184;2024-02-23T12:19:08;2.60;;;1.40;;
7398;SDS011;3740;50.700;7.184;2024-02-23T12:21:34;3.43;;;1.43;;
7398;SDS011;3740;50.700;7.184;2024-02-23T12:24:03;3.33;;;1.43;;
7398;SDS011;3740;50.700;7.184;2024-02-23T12:26:35;2.17;;;1.57;;
7398;SDS011;3740;50.700;7.184;2024-02-23T12:29:01;2.57;;;1.70;;
7398;SDS011;3740;50.700;7.184;2024-02-23T12:31:27;2.67;;;1.73;;
7398;SDS011;3740;50.700;7.184;2024-02-23T12:33:53;4.07;;;1.63;;
7398;SDS011;3740;50.700;7.184;2024-02-23T12:36:19;2.57;;;1.30;;
7398;SDS011;3740;50.700;7.184;2024-02-23T12:38:45;4.27;;;1.83;;
7398;SDS011;3740;50.700;7.184;2024-02-23T12:41:10;1.93;;;1.53;;
7398;SDS011;3740;50.700;7.184;2024-02-23T12:43:36;2.53;;;1.60;;
7398;SDS011;3740;50.700;7.184;2024-02-23T12:46:02;3.17;;;1.83;;
7398;SDS011;3740;50.700;7.184;2024-02-23T12:48:28;2.57;;;1.27;;
7398;SDS011;3740;50.700;7.184;2024-02-23T12:50:54;2.77;;;1.40;;
7398;SDS011;3740;50.700;7.184;2024-02-23T12:58:32;3.37;;;1.60;;
7398;SDS011;3740;50.700;7.184;2024-02-23T13:00:59;1.87;;;1.30;;
7398;SDS011;3740;50.700;7.184;2024-02-23T13:03:25;3.43;;;1.47;;
7398;SDS011;3740;50.700;7.184;2024-02-23T13:05:54;4.60;;;1.50;;
7398;SDS011;3740;50.700;7.184;2024-02-23T13:08:21;4.00;;;1.43;;
7398;SDS011;3740;50.700;7.184;2024-02-23T13:10:47;4.70;;;1.60;;
7398;SDS011;3740;50.700;7.184;2024-02-23T13:13:14;3.27;;;1.50;;
7398;SDS011;3740;50.700;7.184;2024-02-23T13:15:40;3.27;;;1.83;;
7398;SDS011;3740;50.700;7.184;2024-02-23T13:18:06;3.23;;;1.40;;
7398;SDS011;3740;50.700;7.184;2024-02-23T13:20:32;5.63;;;1.43;;
7398;SDS011;3740;50.700;7.184;2024-02-23T13:22:58;4.10;;;1.80;;
7398;SDS011;3740;50.700;7.184;2024-02-23T13:25:23;4.17;;;2.13;;
7398;SDS011;3740;50.700;7.184;2024-02-23T13:27:49;4.07;;;1.43;;
7398;SDS011;3740;50.700;7.184;2024-02-23T13:30:15;4.00;;;1.60;;
7398;SDS011;3740;50.700;7.184;2024-02-23T13:32:40;4.23;;;1.70;;
7398;SDS011;3740;50.700;7.184;2024-02-23T13:35:06;3.83;;;1.53;;
7398;SDS011;3740;50.700;7.184;2024-02-23T13:37:33;3.27;;;1.40;;
7398;SDS011;3740;50.700;7.184;2024-02-23T13:39:59;3.57;;;1.60;;
7398;SDS011;3740;50.700;7.184;2024-02-23T13:42:25;2.90;;;1.50;;
7398;SDS011;3740;50.700;7.184;2024-02-23T13:44:50;1.95;;;1.13;;
7398;SDS011;3740;50.700;7.184;2024-02-23T13:47:16;1.52;;;1.25;;
7398;SDS011;3740;50.700;7.184;2024-02-23T13:49:42;2.45;;;1.20;;
7398;SDS011;3740;50.700;7.184;2024-02-23T13:52:08;2.25;;;1.30;;
7398;SDS011;3740;50.700;7.184;2024-02-23T13:54:33;1.40;;;1.20;;
7398;SDS011;3740;50.700;7.184;2024-02-23T13:56:59;1.58;;;1.20;;
7398;SDS011;3740;50.700;7.184;2024-02-23T13:59:24;3.50;;;1.40;;
7398;SDS011;3740;50.700;7.184;2024-02-23T14:01:50;2.72;;;1.48;;
7398;SDS011;3740;50.700;7.184;2024-02-23T14:04:16;2.90;;;1.75;;
7398;SDS011;3740;50.700;7.184;2024-02-23T14:06:42;5.90;;;2.13;;
7398;SDS011;3740;50.700;7.184;2024-02-23T14:09:08;5.20;;;2.17;;
7398;SDS011;3740;50.700;7.184;2024-02-23T14:11:34;2.97;;;1.80;;
7398;SDS011;3740;50.700;7.184;2024-02-23T14:13:59;1.93;;;1.47;;
7398;SDS011;3740;50.700;7.184;2024-02-23T14:16:25;4.03;;;2.73;;
7398;SDS011;3740;50.700;7.184;2024-02-23T14:18:51;6.47;;;3.00;;
7398;SDS011;3740;50.700;7.184;2024-02-23T14:21:16;2.23;;;1.60;;
7398;SDS011;3740;50.700;7.184;2024-02-23T14:23:43;4.93;;;2.00;;
7398;SDS011;3740;50.700;7.184;2024-02-23T14:26:09;4.10;;;1.90;;
7398;SDS011;3740;50.700;7.184;2024-02-23T14:28:34;5.23;;;1.97;;
7398;SDS011;3740;50.700;7.184;2024-02-23T14:31:00;4.43;;;1.90;;
7398;SDS011;3740;50.700;7.184;2024-02-23T14:33:26;3.17;;;1.63;;
7398;SDS011;3740;50.700;7.184;2024-02-23T14:35:51;2.60;;;1.67;;
7398;SDS011;3740;50.700;7.184;2024-02-23T14:38:17;2.27;;;1.50;;
7398;SDS011;3740;50.700;7.184;2024-02-23T14:40:43;2.63;;;1.80;;
7398;SDS011;3740;50.700;7.184;2024-02-23T14:43:08;4.67;;;1.83;;
7398;SDS011;3740;50.700;7.184;2024-02-23T14:45:34;2.93;;;1.43;;
7398;SDS011;3740;50.700;7.184;2024-02-23T14:48:00;1.97;;;1.40;;
7398;SDS011;3740;50.700;7.184;2024-02-23T14:50:26;1.93;;;1.53;;
7398;SDS011;3740;50.700;7.184;2024-02-23T14:52:52;2.30;;;1.40;;
7398;SDS011;3740;50.700;7.184;2024-02-23T14:55:17;2.33;;;1.80;;
7398;SDS011;3740;50.700;7.184;2024-02-23T14:57:43;3.63;;;1.50;;
7398;SDS011;3740;50.700;7.184;2024-02-23T15:00:08;3.87;;;1.77;;
7398;SDS011;3740;50.700;7.184;2024-02-23T15:02:35;3.70;;;1.80;;
7398;SDS011;3740;50.700;7.184;2024-02-23T15:05:00;3.20;;;1.67;;
7398;SDS011;3740;50.700;7.184;2024-02-23T15:07:26;2.07;;;1.37;;
7398;SDS011;3740;50.700;7.184;2024-02-23T15:09:53;3.93;;;1.70;;
7398;SDS011;3740;50.700;7.184;2024-02-23T15:12:19;2.20;;;1.30;;
7398;SDS011;3740;50.700;7.184;2024-02-23T15:14:46;2.70;;;1.57;;